Time;durP1;ratioP1;P1;durP2;ratioP2;P2;SDS_P1;SDS_P2;PMS_P1;PMS_P2;Temp;Humidity;BMP_temperature;BMP_pressure;BME280_temperature;BME280_humidity;BME280_pressure;Samples;Min_cycle;Max_cycle;Signal;HPM_P1;HPM_P2
2024/02/22 00:00:19;;;;;;;;;;;;;;;11.82;59.77;101052.97;4859120;29;20489;-82
2024/02/22 00:03:11;;;;;;;;;;;;;;;11.79;60.05;101042.66;4868293;29;19915;-82
2024/02/22 00:06:03;;;;;;;;;;;;;;;11.77;60.38;101039.47;4871860;29;19920;-82
2024/02/22 00:08:55;;;;;;;;;;;;;;;11.74;60.23;101039.28;4867032;29;19919;-82
2024/02/22 00:11:47;;;;;;;;;;;;;;;11.72;60.15;101034.13;4866789;29;19915;-81
2024/02/22 00:14:39;;;;;;;;;;;;;;;11.73;60.58;101032.25;4867116;29;19916;-82
2024/02/22 00:17:31;;;;;;;;;;;;;;;11.77;59.88;101034.03;4872635;29;19919;-82
2024/02/22 00:20:20;;;;;;;;;;;;;;;11.79;59.79;101037.22;4866745;29;19916;-82
2024/02/22 00:23:12;;;;;;;;;;;;;;;11.75;59.97;101030.81;4870268;29;19915;-82
2024/02/22 00:26:04;;;;;;;;;;;;;;;11.77;59.75;101023.13;4873027;29;19916;-83
2024/02/22 00:28:56;;;;;;;;;;;;;;;11.83;60.36;101019.16;4879969;29;19920;-82
2024/02/22 00:31:51;;;;;;;;;;;;;;;11.74;60.19;101020.22;4880243;29;19915;-81
2024/02/22 00:34:43;;;;;;;;;;;;;;;11.78;60.50;101010.31;4866254;29;19920;-82
2024/02/22 00:37:35;;;;;;;;;;;;;;;11.81;60.44;101005.03;4880435;29;19927;-81
2024/02/22 00:40:27;;;;;;;;;;;;;;;11.79;60.46;101009.16;4870109;29;19915;-82
2024/02/22 00:43:18;;;;;;;;;;;;;;;11.70;60.40;101011.84;4859912;29;20289;-83
2024/02/22 00:46:10;;;;;;;;;;;;;;;11.76;60.34;101009.81;4868859;29;19919;-83
2024/02/22 00:49:02;;;;;;;;;;;;;;;11.78;60.18;100997.50;4866873;29;20515;-82
2024/02/22 00:51:54;;;;;;;;;;;;;;;11.79;60.27;100998.28;4866779;29;20304;-82
2024/02/22 00:54:46;;;;;;;;;;;;;;;11.83;60.31;100989.19;4855480;29;19923;-82
2024/02/22 00:57:35;;;;;;;;;;;;;;;11.87;60.51;100981.97;4865733;29;19916;-82
2024/02/22 01:00:27;;;;;;;;;;;;;;;11.92;60.18;100984.53;4879820;29;19915;-82
2024/02/22 01:03:19;;;;;;;;;;;;;;;11.89;60.22;100982.44;4863448;29;19916;-82
2024/02/22 01:06:10;;;;;;;;;;;;;;;11.79;60.80;100974.56;4856780;29;19920;-82
2024/02/22 01:09:01;;;;;;;;;;;;;;;11.75;60.78;100976.31;4866355;29;19919;-82
2024/02/22 01:11:54;;;;;;;;;;;;;;;11.87;60.84;100962.88;4865954;29;19916;-83
2024/02/22 01:14:46;;;;;;;;;;;;;;;11.90;60.60;100956.78;4872421;29;19920;-82
2024/02/22 01:17:35;;;;;;;;;;;;;;;11.85;60.37;100951.50;4853598;29;19915;-82
2024/02/22 01:20:27;;;;;;;;;;;;;;;11.83;60.95;100953.75;4869262;29;19916;-82
2024/02/22 01:23:19;;;;;;;;;;;;;;;11.93;60.98;100947.19;4859060;29;19916;-82
2024/02/22 01:26:11;;;;;;;;;;;;;;;11.99;60.99;100940.44;4879130;29;19919;-83
2024/02/22 01:29:03;;;;;;;;;;;;;;;11.91;61.03;100939.31;4855581;29;20378;-83
2024/02/22 01:31:56;;;;;;;;;;;;;;;11.86;61.94;100927.78;4865475;29;20377;-82
2024/02/22 01:34:49;;;;;;;;;;;;;;;11.84;61.86;100930.00;4852394;29;20378;-82
2024/02/22 01:37:41;;;;;;;;;;;;;;;11.72;61.64;100921.63;4864911;29;19915;-82
2024/02/22 01:40:33;;;;;;;;;;;;;;;11.76;61.46;100918.00;4865669;29;20318;-82
2024/02/22 01:43:25;;;;;;;;;;;;;;;11.88;61.35;100915.44;4871096;29;19966;-82
2024/02/22 01:46:14;;;;;;;;;;;;;;;11.83;61.41;100910.16;4865157;29;20378;-82
2024/02/22 01:49:04;;;;;;;;;;;;;;;11.84;61.28;100905.47;4878553;29;19927;-82
2024/02/22 01:51:57;;;;;;;;;;;;;;;11.90;61.24;100896.84;4865560;29;19916;-82
2024/02/22 01:54:50;;;;;;;;;;;;;;;11.91;61.54;100890.28;4864986;29;19934;-83
2024/02/22 01:57:42;;;;;;;;;;;;;;;11.89;61.61;100888.97;4865341;29;19915;-82
2024/02/22 02:00:35;;;;;;;;;;;;;;;11.88;61.66;100887.41;4865376;29;19919;-82
2024/02/22 02:03:28;;;;;;;;;;;;;;;11.87;61.40;100883.88;4871531;29;19916;-83
2024/02/22 02:06:20;;;;;;;;;;;;;;;11.92;61.50;100867.34;4869465;29;19915;-83
2024/02/22 02:09:11;;;;;;;;;;;;;;;11.94;60.75;100864.28;4858568;29;19920;-83
2024/02/22 02:12:03;;;;;;;;;;;;;;;12.00;60.97;100863.81;4865692;29;19919;-83
2024/02/22 02:14:55;;;;;;;;;;;;;;;12.02;61.72;100860.78;4865242;29;19916;-82
2024/02/22 02:17:47;;;;;;;;;;;;;;;12.00;61.62;100849.38;4870527;29;19915;-82
2024/02/22 02:20:43;;;;;;;;;;;;;;;11.85;61.98;100845.22;4855184;29;19916;-82
2024/02/22 02:23:41;;;;;;;;;;;;;;;11.91;61.41;100843.16;4864882;29;19920;-83
2024/02/22 02:26:33;;;;;;;;;;;;;;;12.04;61.50;100835.94;4858929;29;20306;-82
2024/02/22 02:29:25;;;;;;;;;;;;;;;12.04;61.44;100828.53;4854158;29;19919;-82
2024/02/22 02:32:18;;;;;;;;;;;;;;;12.03;61.56;100824.25;4864482;29;20582;-82
2024/02/22 02:35:10;;;;;;;;;;;;;;;12.05;61.38;100832.06;4878244;29;19919;-83
2024/02/22 02:38:02;;;;;;;;;;;;;;;12.04;61.67;100827.75;4854675;29;19915;-82
2024/02/22 02:40:54;;;;;;;;;;;;;;;12.02;61.73;100817.19;4864906;29;19923;-82
2024/02/22 02:43:46;;;;;;;;;;;;;;;12.03;61.02;100817.97;4857852;29;19920;-82
2024/02/22 02:46:38;;;;;;;;;;;;;;;11.94;61.04;100826.94;4870100;29;19915;-82
2024/02/22 02:49:30;;;;;;;;;;;;;;;12.07;61.02;100835.28;4878075;29;20569;-82
2024/02/22 02:52:20;;;;;;;;;;;;;;;12.11;61.17;100831.59;4870250;29;19912;-82
2024/02/22 02:55:12;;;;;;;;;;;;;;;12.10;61.63;100829.97;4853296;29;20366;-82
2024/02/22 02:58:05;;;;;;;;;;;;;;;12.07;62.09;100830.63;4884284;29;19920;-83
2024/02/22 03:00:57;;;;;;;;;;;;;;;11.99;62.23;100829.50;4877950;29;19915;-84
2024/02/22 03:03:49;;;;;;;;;;;;;;;11.96;62.24;100832.88;4896714;29;19920;-85
2024/02/22 03:06:41;;;;;;;;;;;;;;;11.95;61.95;100822.31;4887175;29;19916;-83
2024/02/22 03:09:33;;;;;;;;;;;;;;;11.90;62.48;100823.28;4896471;29;19920;-83
2024/02/22 03:12:25;;;;;;;;;;;;;;;12.00;62.01;100831.13;4870596;29;19915;-83
2024/02/22 03:15:17;;;;;;;;;;;;;;;12.06;61.68;100826.31;4896649;29;19915;-82
2024/02/22 03:18:09;;;;;;;;;;;;;;;12.05;61.42;100818.44;4882455;29;19919;-82
2024/02/22 03:21:02;;;;;;;;;;;;;;;12.03;61.41;100817.97;4886155;29;19916;-83
2024/02/22 03:23:54;;;;;;;;;;;;;;;12.03;61.74;100818.78;4876628;29;19915;-82
2024/02/22 03:26:46;;;;;;;;;;;;;;;11.97;62.02;100801.00;4886067;29;19923;-82
2024/02/22 03:29:38;;;;;;;;;;;;;;;12.03;61.56;100810.59;4887796;29;20389;-82
2024/02/22 03:32:27;;;;;;;;;;;;;;;12.02;61.21;100810.91;4888457;29;19919;-82
2024/02/22 03:35:24;;;;;;;;;;;;;;;12.04;60.68;100805.97;4899935;29;19916;-82
2024/02/22 03:38:16;;;;;;;;;;;;;;;12.06;60.40;100796.31;4885865;29;19919;-82
2024/02/22 03:41:08;;;;;;;;;;;;;;;12.07;60.94;100787.03;4886220;29;19915;-82
2024/02/22 03:44:00;;;;;;;;;;;;;;;12.08;61.21;100796.00;4900120;29;19919;-82
2024/02/22 03:46:52;;;;;;;;;;;;;;;12.08;61.09;100793.28;4891938;29;20373;-82
2024/02/22 03:49:44;;;;;;;;;;;;;;;12.05;60.51;100783.00;4862548;29;19924;-82
2024/02/22 03:52:36;;;;;;;;;;;;;;;11.98;61.24;100767.97;4871072;29;20591;-82
2024/02/22 03:55:28;;;;;;;;;;;;;;;11.93;60.94;100770.06;4860747;29;19916;-82
2024/02/22 03:58:20;;;;;;;;;;;;;;;11.95;60.54;100765.06;4860657;29;20386;-82
2024/02/22 04:01:12;;;;;;;;;;;;;;;11.95;61.07;100754.16;4866801;29;19920;-83
2024/02/22 04:04:04;;;;;;;;;;;;;;;11.99;60.85;100763.31;4867547;29;19916;-84
2024/02/22 04:06:56;;;;;;;;;;;;;;;12.05;60.94;100755.75;4866979;29;19920;-84
2024/02/22 04:09:47;;;;;;;;;;;;;;;12.05;60.50;100750.31;4872525;29;19919;-82
2024/02/22 04:12:39;;;;;;;;;;;;;;;12.02;60.46;100743.59;4866976;29;20465;-82
2024/02/22 04:15:31;;;;;;;;;;;;;;;11.99;61.20;100739.56;4858843;29;19915;-82
2024/02/22 04:18:23;;;;;;;;;;;;;;;11.96;60.89;100740.22;4850616;29;19916;-82
2024/02/22 04:21:15;;;;;;;;;;;;;;;11.97;61.03;100744.56;4848044;29;19916;-81
2024/02/22 04:24:07;;;;;;;;;;;;;;;11.91;60.92;100739.59;4864003;29;19920;-82
2024/02/22 04:26:59;;;;;;;;;;;;;;;11.84;61.08;100739.28;4868169;29;19916;-82
2024/02/22 04:29:51;;;;;;;;;;;;;;;11.75;61.75;100725.69;4854329;29;19923;-82
2024/02/22 04:36:31;;;;;;;;;;;;;;;11.70;61.89;100719.56;4886224;29;20377;-82
2024/02/22 04:39:23;;;;;;;;;;;;;;;11.72;61.82;100715.41;4880957;29;19916;-82
2024/02/22 04:42:15;;;;;;;;;;;;;;;11.59;62.34;100722.63;4859723;29;19920;-83
2024/02/22 04:45:07;;;;;;;;;;;;;;;11.63;62.42;100722.75;4869604;29;20305;-82
2024/02/22 04:47:59;;;;;;;;;;;;;;;11.49;64.07;100712.03;4867403;29;20323;-82
2024/02/22 04:50:52;;;;;;;;;;;;;;;11.46;62.64;100712.69;4880305;29;19924;-81
2024/02/22 04:53:44;;;;;;;;;;;;;;;11.45;63.04;100710.28;4868491;29;19920;-81
2024/02/22 04:56:41;;;;;;;;;;;;;;;11.42;62.74;100705.50;4867088;29;19916;-82
2024/02/22 04:59:32;;;;;;;;;;;;;;;11.42;62.92;100694.59;4857034;29;19923;-83
2024/02/22 05:02:24;;;;;;;;;;;;;;;11.25;63.10;100695.41;4880419;29;19919;-81
2024/02/22 05:05:16;;;;;;;;;;;;;;;11.42;63.16;100700.06;4870732;29;19916;-82
2024/02/22 05:08:08;;;;;;;;;;;;;;;11.41;63.01;100691.09;4872496;29;19915;-82
2024/02/22 05:11:03;;;;;;;;;;;;;;;11.46;62.82;100698.28;4868274;29;19919;-82
2024/02/22 05:13:56;;;;;;;;;;;;;;;11.45;62.87;100702.13;4865842;29;19920;-83
2024/02/22 05:16:48;;;;;;;;;;;;;;;11.37;63.42;100694.78;4871841;29;19916;-88
2024/02/22 05:19:40;;;;;;;;;;;;;;;11.28;63.48;100683.06;4865812;29;19916;-82
2024/02/22 05:22:32;;;;;;;;;;;;;;;11.24;63.18;100674.75;4868596;29;19916;-82
2024/02/22 05:25:24;;;;;;;;;;;;;;;11.21;63.07;100688.19;4847224;29;19934;-81
2024/02/22 05:28:16;;;;;;;;;;;;;;;11.26;63.34;100712.53;4846772;29;19916;-81
2024/02/22 05:31:18;;;;;;;;;;;;;;;11.21;63.52;100708.06;4855117;29;19920;-82
2024/02/22 05:34:11;;;;;;;;;;;;;;;11.30;63.24;100695.25;4879291;29;19915;-82
2024/02/22 05:37:03;;;;;;;;;;;;;;;11.41;62.37;100693.81;4879588;29;20514;-81
2024/02/22 05:39:55;;;;;;;;;;;;;;;11.52;62.37;100699.72;4854183;29;19923;-81
2024/02/22 05:42:46;;;;;;;;;;;;;;;11.59;61.61;100683.69;4870720;29;19916;-83
2024/02/22 05:45:44;;;;;;;;;;;;;;;11.62;61.90;100680.34;4861024;29;19916;-82
2024/02/22 05:48:36;;;;;;;;;;;;;;;11.49;62.77;100684.81;4864252;29;19916;-82
2024/02/22 05:51:28;;;;;;;;;;;;;;;11.53;63.10;100683.03;4885177;29;19919;-81
2024/02/22 05:54:20;;;;;;;;;;;;;;;11.28;63.92;100680.34;4897446;29;19920;-82
2024/02/22 05:57:12;;;;;;;;;;;;;;;11.24;64.01;100672.00;4897379;29;19915;-82
2024/02/22 06:00:04;;;;;;;;;;;;;;;11.08;65.16;100670.88;4898028;29;20399;-81
2024/02/22 06:03:01;;;;;;;;;;;;;;;10.95;65.56;100653.59;4898308;29;19916;-82
2024/02/22 06:05:53;;;;;;;;;;;;;;;10.92;65.36;100654.22;4878143;29;19925;-81
2024/02/22 06:08:45;;;;;;;;;;;;;;;10.85;65.76;100656.63;4890179;29;19923;-82
2024/02/22 06:11:37;;;;;;;;;;;;;;;10.31;67.56;100649.78;4872778;29;19915;-80
2024/02/22 06:14:29;;;;;;;;;;;;;;;9.28;71.38;100638.34;4891570;29;19916;-81
2024/02/22 06:17:21;;;;;;;;;;;;;;;9.14;73.27;100638.41;4898034;29;19920;-79
2024/02/22 06:20:13;;;;;;;;;;;;;;;9.12;73.42;100626.25;4870417;29;19920;-81
2024/02/22 06:23:05;;;;;;;;;;;;;;;9.15;73.67;100640.00;4847866;29;19920;-79
2024/02/22 06:25:57;;;;;;;;;;;;;;;9.70;71.79;100648.66;4860897;29;19915;-81
2024/02/22 06:28:52;;;;;;;;;;;;;;;10.01;70.82;100635.09;4865221;29;19920;-81
2024/02/22 06:31:44;;;;;;;;;;;;;;;10.20;69.84;100654.72;4879088;29;19915;-82
2024/02/22 06:34:36;;;;;;;;;;;;;;;10.23;69.81;100653.28;4865490;29;19915;-81
2024/02/22 06:37:27;;;;;;;;;;;;;;;10.38;69.12;100647.41;4868494;29;19916;-81
2024/02/22 06:43:13;;;;;;;;;;;;;;;10.48;68.58;100649.03;4855933;29;19931;-82
2024/02/22 06:46:05;;;;;;;;;;;;;;;10.34;68.76;100653.78;4855034;29;19920;-81
2024/02/22 06:49:11;;;;;;;;;;;;;;;10.33;69.38;100658.44;4863818;29;19920;-81
2024/02/22 06:59:30;;;;;;;;;;;;;;;9.73;70.34;100649.97;4856365;29;19925;-81
2024/02/22 07:08:19;;;;;;;;;;;;;;;9.93;70.90;100603.28;5210182;23;19925;-82
2024/02/22 07:50:08;;;;;;;;;;;;;;;;;;;;;
2024/02/22 07:53:06;;;;;;;;;;;;;;;10.70;69.01;100602.69;5769013;23;19931;-83
2024/02/22 08:44:44;;;;;;;;;;;;;;;11.07;71.05;100531.31;4887882;29;19912;-85
2024/02/22 08:51:37;;;;;;;;;;;;;;;10.97;70.65;100531.63;4858300;29;19905;-87
2024/02/22 08:55:10;;;;;;;;;;;;;;;;;;;;;
2024/02/22 09:01:13;;;;;;;;;;;;;;;11.17;69.93;100508.41;5510104;23;20302;-82
2024/02/22 09:40:30;;;;;;;;;;;;;;;11.09;74.24;100531.78;4887151;29;19908;-84
2024/02/22 09:43:33;;;;;;;;;;;;;;;11.03;73.50;100541.25;4875638;29;19904;-84
2024/02/22 09:46:26;;;;;;;;;;;;;;;10.55;76.14;100551.50;4851610;29;19900;-83
2024/02/22 09:49:19;;;;;;;;;;;;;;;10.72;76.25;100540.63;4881147;29;19900;-85
2024/02/22 09:52:21;;;;;;;;;;;;;;;10.76;76.75;100555.19;4882713;29;19908;-85
2024/02/22 09:55:30;;;;;;;;;;;;;;;10.32;79.26;100569.03;4877716;29;19900;-86
2024/02/22 09:58:21;;;;;;;;;;;;;;;9.94;81.22;100564.13;4880565;29;19904;-86
2024/02/22 10:01:11;;;;;;;;;;;;;;;10.66;80.72;100569.13;4876459;29;19900;-85
2024/02/22 10:05:16;;;;;;;;;;;;;;;11.06;76.49;100575.97;4887621;29;19899;-86
2024/02/22 10:18:37;;;;;;;;;;;;;;;12.09;72.13;100582.28;5008151;23;19931;-85
2024/02/22 10:25:07;;;;;;;;;;;;;;;11.79;72.92;100565.88;4963919;23;19931;-84
2024/02/22 10:27:59;;;;;;;;;;;;;;;11.91;72.76;100571.47;4845058;29;19924;-86
2024/02/22 10:31:13;;;;;;;;;;;;;;;12.02;72.68;100568.38;4855785;23;19928;-86
2024/02/22 10:34:05;;;;;;;;;;;;;;;12.08;72.14;100562.41;4847872;29;19920;-84
2024/02/22 10:36:56;;;;;;;;;;;;;;;12.00;72.37;100565.97;4849878;29;19924;-85
2024/02/22 10:39:51;;;;;;;;;;;;;;;11.90;72.92;100572.56;4855138;29;19916;-83
2024/02/22 10:42:41;;;;;;;;;;;;;;;11.53;73.94;100560.50;4846080;29;19915;-83
2024/02/22 10:45:41;;;;;;;;;;;;;;;11.38;74.88;100557.50;4851325;29;19932;-83
2024/02/22 10:48:34;;;;;;;;;;;;;;;11.42;75.68;100555.75;4856672;29;20410;-85
2024/02/22 10:51:30;;;;;;;;;;;;;;;11.59;75.75;100552.94;4840632;29;19924;-85
2024/02/22 10:54:24;;;;;;;;;;;;;;;11.73;75.13;100547.34;4856466;29;19935;-85
2024/02/22 10:57:15;;;;;;;;;;;;;;;11.76;75.54;100550.22;4851729;29;19916;-86
2024/02/22 11:00:07;;;;;;;;;;;;;;;11.66;76.27;100538.84;4833244;29;19916;-86
2024/02/22 11:03:02;;;;;;;;;;;;;;;11.17;78.63;100524.75;4853904;29;19903;-85
2024/02/22 11:13:30;;;;;;;;;;;;;;;11.19;78.10;100503.44;5051089;23;19931;-84
2024/02/22 11:48:34;;;;;;;;;;;;;;;12.84;71.98;100432.03;4844012;29;20318;-86
2024/02/22 11:51:29;;;;;;;;;;;;;;;12.57;73.46;100427.16;4845672;29;19921;-85
2024/02/22 11:54:24;;;;;;;;;;;;;;;12.79;71.93;100424.06;4838572;29;19920;-85
2024/02/22 11:57:26;;;;;;;;;;;;;;;12.88;72.75;100404.84;4826152;29;19917;-85
2024/02/22 12:00:18;;;;;;;;;;;;;;;13.27;71.83;100398.78;4836862;29;19917;-85
2024/02/22 12:03:11;;;;;;;;;;;;;;;13.64;69.59;100396.84;4837953;29;19916;-85
2024/02/22 12:06:06;;;;;;;;;;;;;;;13.63;70.28;100397.97;4831804;29;19921;-85
2024/02/22 12:08:58;;;;;;;;;;;;;;;13.50;70.03;100396.41;4850152;29;19917;-85
2024/02/22 12:11:50;;;;;;;;;;;;;;;13.01;71.64;100383.81;4819092;29;19920;-85
2024/02/22 12:14:42;;;;;;;;;;;;;;;12.94;72.99;100383.59;4824921;29;19916;-85
2024/02/22 12:17:41;;;;;;;;;;;;;;;12.68;72.42;100371.03;4838927;29;19916;-85
2024/02/22 12:20:40;;;;;;;;;;;;;;;12.55;73.30;100374.06;4843937;23;19931;-85
2024/02/22 12:23:35;;;;;;;;;;;;;;;12.64;73.35;100375.59;4839500;29;19921;-85
2024/02/22 12:26:27;;;;;;;;;;;;;;;12.54;73.76;100373.28;4826886;29;19917;-85
2024/02/22 12:29:22;;;;;;;;;;;;;;;12.30;74.25;100360.34;4820194;29;19916;-84
2024/02/22 12:32:14;;;;;;;;;;;;;;;12.40;74.23;100361.84;4819305;29;19920;-84
2024/02/22 12:35:08;;;;;;;;;;;;;;;12.42;74.83;100357.66;4811309;29;19920;-85
2024/02/22 12:38:00;;;;;;;;;;;;;;;12.42;74.86;100351.41;4845564;29;19917;-84
2024/02/22 12:40:53;;;;;;;;;;;;;;;12.47;75.81;100342.22;4832211;29;19917;-84
2024/02/22 12:43:53;;;;;;;;;;;;;;;12.29;75.93;100334.22;4814800;29;19920;-85
2024/02/22 12:46:45;;;;;;;;;;;;;;;12.43;76.81;100334.72;4839281;29;19930;-84
2024/02/22 12:49:38;;;;;;;;;;;;;;;12.19;77.85;100315.53;4812592;29;19917;-85
2024/02/22 12:52:30;;;;;;;;;;;;;;;12.12;78.31;100311.78;4829562;29;19920;-86
2024/02/22 12:55:22;;;;;;;;;;;;;;;12.07;78.66;100307.34;4836938;29;19917;-85
2024/02/22 12:58:13;;;;;;;;;;;;;;;12.07;77.20;100301.88;4833176;29;19917;-85
2024/02/22 13:01:06;;;;;;;;;;;;;;;12.00;77.86;100296.16;4802041;29;19917;-85
2024/02/22 13:03:57;;;;;;;;;;;;;;;11.93;78.23;100294.00;4834018;29;19916;-84
2024/02/22 13:06:52;;;;;;;;;;;;;;;11.82;78.44;100284.66;4819248;29;19917;-85
2024/02/22 13:09:44;;;;;;;;;;;;;;;11.86;78.95;100280.13;4831711;29;19916;-83
2024/02/22 13:12:36;;;;;;;;;;;;;;;11.87;78.54;100281.72;4818691;29;19921;-84
2024/02/22 13:15:28;;;;;;;;;;;;;;;11.80;78.67;100270.53;4832081;29;19917;-85
2024/02/22 13:18:22;;;;;;;;;;;;;;;11.63;79.75;100259.75;4828737;29;19943;-84
2024/02/22 13:21:13;;;;;;;;;;;;;;;11.66;79.63;100259.09;4837123;29;20411;-85
2024/02/22 13:24:05;;;;;;;;;;;;;;;11.67;80.39;100244.38;4840060;29;19924;-85
2024/02/22 13:26:59;;;;;;;;;;;;;;;11.71;81.45;100236.31;4835673;29;19920;-87
2024/02/22 13:29:52;;;;;;;;;;;;;;;11.82;80.80;100218.47;4839276;29;19924;-84
2024/02/22 13:32:44;;;;;;;;;;;;;;;11.90;80.95;100214.84;4835405;29;19921;-85
2024/02/22 13:35:39;;;;;;;;;;;;;;;11.77;80.93;100199.59;4840658;29;19916;-84
2024/02/22 13:38:34;;;;;;;;;;;;;;;11.72;81.38;100200.59;4835626;29;19931;-85
2024/02/22 13:41:27;;;;;;;;;;;;;;;11.65;82.53;100197.59;4835957;29;19928;-85
2024/02/22 13:44:19;;;;;;;;;;;;;;;11.79;82.01;100202.78;4835773;29;19917;-84
2024/02/22 13:47:11;;;;;;;;;;;;;;;11.82;81.73;100196.66;4837842;29;20383;-84
2024/02/22 13:50:02;;;;;;;;;;;;;;;11.79;82.10;100187.22;4831609;29;19916;-85
2024/02/22 13:52:56;;;;;;;;;;;;;;;11.73;82.32;100188.59;4839625;29;19920;-85
2024/02/22 13:55:49;;;;;;;;;;;;;;;11.86;82.89;100198.38;4838785;29;19916;-85
2024/02/22 13:58:43;;;;;;;;;;;;;;;11.84;82.36;100187.00;4836998;29;20539;-85
2024/02/22 14:01:33;;;;;;;;;;;;;;;11.85;82.45;100179.63;4849330;29;19916;-85
2024/02/22 14:04:23;;;;;;;;;;;;;;;11.78;83.13;100173.97;4829777;29;19916;-85
2024/02/22 14:07:12;;;;;;;;;;;;;;;11.83;82.70;100177.28;4830424;29;19921;-84
2024/02/22 14:10:04;;;;;;;;;;;;;;;11.85;82.22;100180.44;4816961;29;19917;-78
2024/02/22 14:12:51;;;;;;;;;;;;;;;11.90;82.47;100172.06;4836440;29;19928;-82
2024/02/22 14:15:43;;;;;;;;;;;;;;;11.87;82.73;100172.75;4813869;29;19920;-83
2024/02/22 14:18:35;;;;;;;;;;;;;;;11.84;82.73;100167.94;4815849;29;19916;-84
2024/02/22 14:21:26;;;;;;;;;;;;;;;11.85;82.98;100158.66;4810941;29;19916;-84
2024/02/22 14:24:21;;;;;;;;;;;;;;;11.82;83.31;100153.09;4839251;29;19921;-85
2024/02/22 14:27:13;;;;;;;;;;;;;;;11.61;83.83;100144.94;4812864;29;19917;-84
2024/02/22 14:30:05;;;;;;;;;;;;;;;11.66;84.41;100149.38;4817227;29;19916;-85
2024/02/22 14:32:54;;;;;;;;;;;;;;;11.74;83.92;100146.59;4811446;29;20391;-85
2024/02/22 14:35:43;;;;;;;;;;;;;;;11.74;83.99;100145.78;4810778;29;19921;-84
2024/02/22 14:38:35;;;;;;;;;;;;;;;11.80;83.74;100144.44;4815857;29;19917;-83
2024/02/22 14:41:30;;;;;;;;;;;;;;;11.77;83.03;100140.47;4813025;29;19924;-83
2024/02/22 14:44:22;;;;;;;;;;;;;;;11.73;83.39;100139.56;4822734;29;19920;-84
2024/02/22 14:47:14;;;;;;;;;;;;;;;11.67;83.72;100127.25;4840536;29;19925;-83
2024/02/22 14:50:06;;;;;;;;;;;;;;;11.56;84.25;100132.34;4835017;29;19916;-83
2024/02/22 14:53:01;;;;;;;;;;;;;;;11.33;85.29;100131.09;4850945;29;20389;-84
2024/02/22 15:01:45;;;;;;;;;;;;;;;10.86;88.88;100105.25;4914582;23;19914;-84
2024/02/22 15:04:44;;;;;;;;;;;;;;;11.07;88.06;100095.19;4849148;29;19904;-84
2024/02/22 15:25:03;;;;;;;;;;;;;;;11.11;87.37;100110.50;4879556;29;19924;-83
2024/02/22 15:28:23;;;;;;;;;;;;;;;11.09;85.97;100095.63;4864175;29;19900;-84
2024/02/22 15:35:03;;;;;;;;;;;;;;;11.18;86.33;100084.66;4950136;23;19924;-85
2024/02/22 15:38:00;;;;;;;;;;;;;;;11.21;86.00;100076.63;4853035;29;19920;-84
2024/02/22 15:40:52;;;;;;;;;;;;;;;11.19;85.57;100072.63;4841619;29;19917;-83
2024/02/22 15:43:56;;;;;;;;;;;;;;;11.15;86.16;100072.53;4824692;29;19920;-83
2024/02/22 15:46:48;;;;;;;;;;;;;;;11.18;86.09;100073.75;4837907;29;19924;-83
2024/02/22 15:49:42;;;;;;;;;;;;;;;11.12;86.51;100078.66;4822155;29;19921;-85
2024/02/22 15:52:35;;;;;;;;;;;;;;;11.12;86.69;100070.47;4831632;29;19920;-84
2024/02/22 15:58:48;;;;;;;;;;;;;;;11.11;87.27;100068.88;5081514;23;19939;-83
2024/02/22 16:01:40;;;;;;;;;;;;;;;11.19;87.11;100051.66;4850143;29;19927;-84
2024/02/22 16:04:35;;;;;;;;;;;;;;;11.19;87.00;100062.56;4849004;29;19916;-84
2024/02/22 16:07:22;;;;;;;;;;;;;;;11.19;86.86;100048.16;4854035;29;19915;-83
2024/02/22 16:10:14;;;;;;;;;;;;;;;11.11;87.22;100053.34;4853217;29;19916;-83
2024/02/22 16:13:05;;;;;;;;;;;;;;;11.13;87.20;100032.03;4850749;29;20389;-83
2024/02/22 16:16:00;;;;;;;;;;;;;;;11.06;88.14;100034.53;4856173;29;19924;-84
2024/02/22 16:18:54;;;;;;;;;;;;;;;11.07;88.46;100038.81;4852531;29;19920;-85
2024/02/22 16:21:46;;;;;;;;;;;;;;;11.08;88.63;100031.44;4849537;29;19924;-84
2024/02/22 16:24:38;;;;;;;;;;;;;;;11.03;89.10;100023.50;4856984;29;19915;-83
2024/02/22 16:27:30;;;;;;;;;;;;;;;11.01;89.71;100020.34;4850433;29;19920;-83
2024/02/22 16:30:22;;;;;;;;;;;;;;;10.99;89.98;100019.84;4849326;29;19916;-83
2024/02/22 16:33:16;;;;;;;;;;;;;;;10.89;89.35;100018.34;4840574;29;19920;-82
2024/02/22 16:36:08;;;;;;;;;;;;;;;10.96;89.02;100021.34;4851733;29;19924;-83
2024/02/22 16:38:58;;;;;;;;;;;;;;;10.89;88.88;100018.34;4850627;29;19928;-82
2024/02/22 16:41:50;;;;;;;;;;;;;;;10.90;89.49;100017.22;4849694;29;19920;-83
2024/02/22 16:44:39;;;;;;;;;;;;;;;10.87;89.92;100015.16;4851763;29;20547;-83
2024/02/22 16:47:29;;;;;;;;;;;;;;;10.83;90.45;100014.25;4845082;29;19927;-83
2024/02/22 16:50:18;;;;;;;;;;;;;;;10.83;90.63;100005.28;4835355;29;19916;-84
2024/02/22 16:53:08;;;;;;;;;;;;;;;10.89;90.32;100007.47;4862271;29;19924;-83
2024/02/22 16:56:00;;;;;;;;;;;;;;;10.86;90.48;100000.00;4858391;29;19920;-82
2024/02/22 16:58:52;;;;;;;;;;;;;;;10.77;90.66;99993.03;4851766;29;20321;-82
2024/02/22 17:01:42;;;;;;;;;;;;;;;10.79;90.56;100001.66;4852887;29;19924;-82
2024/02/22 17:12:19;;;;;;;;;;;;;;;10.73;90.37;99984.75;5141291;23;19919;-83
2024/02/22 17:15:32;;;;;;;;;;;;;;;10.66;90.14;99988.03;5555879;23;19921;-82
2024/02/22 17:19:02;;;;;;;;;;;;;;;10.64;90.14;99984.03;4871552;29;19928;-84
2024/02/22 17:22:01;;;;;;;;;;;;;;;10.64;89.46;99997.63;4861467;29;19920;-82
2024/02/22 17:24:54;;;;;;;;;;;;;;;10.76;89.15;100003.13;4841422;29;19925;-82
2024/02/22 17:27:47;;;;;;;;;;;;;;;10.71;89.43;99987.00;4833306;29;19924;-83
2024/02/22 17:30:37;;;;;;;;;;;;;;;10.68;89.96;99995.81;4819384;29;19932;-81
2024/02/22 17:40:03;;;;;;;;;;;;;;;11.17;87.04;100004.16;5052629;23;19931;-81
2024/02/22 17:42:55;;;;;;;;;;;;;;;11.25;85.75;99995.09;4855815;29;19932;-80
2024/02/22 17:45:47;;;;;;;;;;;;;;;11.32;85.10;99989.91;4839835;29;19920;-82
2024/02/22 17:48:37;;;;;;;;;;;;;;;11.31;85.16;99989.13;4835447;29;19923;-84
2024/02/22 17:51:26;;;;;;;;;;;;;;;11.32;84.60;99982.53;4847880;29;19920;-83
2024/02/22 17:54:16;;;;;;;;;;;;;;;11.33;84.40;99984.09;4844593;29;19916;-84
2024/02/22 17:57:08;;;;;;;;;;;;;;;11.41;84.16;99979.72;4861289;29;19920;-80
2024/02/22 18:00:00;;;;;;;;;;;;;;;11.45;83.79;99975.19;4826339;29;19924;-80
2024/02/22 18:02:51;;;;;;;;;;;;;;;11.50;83.45;99973.03;4848338;29;20374;-81
2024/02/22 18:05:43;;;;;;;;;;;;;;;11.51;82.98;99963.72;4843041;29;19916;-82
2024/02/22 18:08:35;;;;;;;;;;;;;;;11.47;82.85;99962.03;4846459;29;19916;-81
2024/02/22 18:11:27;;;;;;;;;;;;;;;11.46;83.07;99955.00;4844942;29;19920;-82
2024/02/22 18:14:19;;;;;;;;;;;;;;;11.48;83.25;99947.25;4848580;29;19916;-83
2024/02/22 18:17:11;;;;;;;;;;;;;;;11.46;82.90;99934.00;4845601;29;19915;-81
2024/02/22 18:20:03;;;;;;;;;;;;;;;11.48;82.95;99931.72;4846549;29;19916;-79
2024/02/22 18:23:00;;;;;;;;;;;;;;;11.51;82.90;99935.72;4843370;29;19916;-83
2024/02/22 18:25:53;;;;;;;;;;;;;;;11.43;82.83;99929.22;4849841;29;19916;-82
2024/02/22 18:28:45;;;;;;;;;;;;;;;11.40;82.88;99918.22;4848122;29;19920;-82
2024/02/22 18:31:34;;;;;;;;;;;;;;;11.36;83.17;99909.16;4854423;29;19920;-82
2024/02/22 18:34:27;;;;;;;;;;;;;;;11.35;83.64;99902.91;4855934;29;19916;-81
2024/02/22 18:37:17;;;;;;;;;;;;;;;11.35;84.33;99904.84;4851469;29;19920;-83
2024/02/22 18:40:09;;;;;;;;;;;;;;;11.40;84.33;99893.72;4844569;29;19916;-84
2024/02/22 18:42:59;;;;;;;;;;;;;;;11.36;84.14;99892.84;4857175;29;19920;-84
2024/02/22 18:45:48;;;;;;;;;;;;;;;11.40;83.99;99891.00;4845115;29;19916;-84
2024/02/22 18:48:40;;;;;;;;;;;;;;;11.36;84.01;99879.22;4854588;29;19919;-84
2024/02/22 18:51:32;;;;;;;;;;;;;;;11.35;84.03;99875.69;4843128;29;19920;-84
2024/02/22 18:54:24;;;;;;;;;;;;;;;11.35;83.83;99875.69;4853727;29;19920;-84
2024/02/22 18:57:13;;;;;;;;;;;;;;;11.35;84.13;99872.19;4856446;29;19919;-82
2024/02/22 19:00:05;;;;;;;;;;;;;;;11.32;83.85;99868.22;4842513;29;20394;-82
2024/02/22 19:02:54;;;;;;;;;;;;;;;11.37;83.86;99857.13;4846416;29;19915;-84